createdAt,value
2019-02-25T00:01:12.377Z,9.70
2019-02-25T00:03:42.525Z,9.90
2019-02-25T00:06:12.644Z,10.00
2019-02-25T00:08:42.824Z,10.00
2019-02-25T00:11:12.977Z,9.90
2019-02-25T00:13:43.221Z,9.80
2019-02-25T00:16:13.425Z,9.70
2019-02-25T00:18:43.569Z,9.60
2019-02-25T00:21:13.742Z,9.60
2019-02-25T00:23:43.897Z,9.60
2019-02-25T00:26:14.096Z,9.70
2019-02-25T00:28:44.249Z,10.00
2019-02-25T00:31:14.437Z,10.40
2019-02-25T00:33:45.310Z,10.70
2019-02-25T00:36:15.470Z,10.90
2019-02-25T00:38:45.585Z,11.00
2019-02-25T00:41:15.754Z,11.10
2019-02-25T00:43:45.995Z,11.10
2019-02-25T00:46:16.141Z,11.10
2019-02-25T00:48:46.249Z,10.90
2019-02-25T00:51:17.234Z,10.70
2019-02-25T00:53:47.352Z,10.70
2019-02-25T00:56:17.511Z,10.40
2019-02-25T00:58:47.619Z,10.20
2019-02-25T01:01:18.077Z,10.00
2019-02-25T01:03:48.185Z,9.80
2019-02-25T01:06:18.328Z,9.70
2019-02-25T01:08:48.459Z,9.60
2019-02-25T01:11:18.677Z,9.50
2019-02-25T01:13:48.790Z,9.30
2019-02-25T01:16:21.290Z,8.90
2019-02-25T01:18:51.446Z,8.60
2019-02-25T01:21:21.582Z,8.50
2019-02-25T01:23:51.734Z,8.40
2019-02-25T01:26:21.897Z,8.40
2019-02-25T01:28:53.094Z,8.40
2019-02-25T01:31:23.654Z,8.30
2019-02-25T01:33:53.819Z,8.30
2019-02-25T01:36:23.973Z,8.20
2019-02-25T01:38:54.156Z,8.20
2019-02-25T01:41:24.309Z,8.20
2019-02-25T01:43:55.461Z,8.10
2019-02-25T01:46:25.622Z,8.10
2019-02-25T01:48:55.824Z,8.10
2019-02-25T01:51:28.455Z,8.10
2019-02-25T01:53:58.643Z,8.10
2019-02-25T01:56:28.790Z,8.10
2019-02-25T01:58:58.921Z,8.20
2019-02-25T02:01:29.054Z,8.40
2019-02-25T02:03:59.203Z,8.50
2019-02-25T02:06:29.385Z,8.50
2019-02-25T02:08:59.633Z,8.30
2019-02-25T02:11:29.915Z,8.00
2019-02-25T02:14:00.062Z,7.80
2019-02-25T02:16:30.220Z,7.70
2019-02-25T02:19:00.374Z,7.80
2019-02-25T02:21:30.537Z,7.90
2019-02-25T02:24:00.673Z,8.10
2019-02-25T02:26:30.841Z,8.40
2019-02-25T02:29:03.381Z,8.50
2019-02-25T02:31:33.533Z,8.40
2019-02-25T02:34:03.658Z,8.30
2019-02-25T02:36:33.801Z,8.30
2019-02-25T02:39:03.942Z,8.30
2019-02-25T02:41:41.205Z,8.20
2019-02-25T02:44:11.352Z,8.10
2019-02-25T02:46:44.655Z,7.90
2019-02-25T02:49:14.901Z,7.50
2019-02-25T02:51:45.906Z,7.40
2019-02-25T02:54:16.049Z,7.30
2019-02-25T02:56:46.205Z,7.30
2019-02-25T02:59:16.376Z,7.30
2019-02-25T03:01:46.523Z,7.60
2019-02-25T03:04:16.735Z,7.60
2019-02-25T03:06:46.879Z,7.60
2019-02-25T03:09:17.043Z,7.70
2019-02-25T03:11:47.215Z,7.70
2019-02-25T03:14:17.403Z,7.70
2019-02-25T03:16:47.638Z,7.80
2019-02-25T03:19:17.777Z,7.80
2019-02-25T03:21:47.916Z,7.80
2019-02-25T03:24:18.111Z,8.00
2019-02-25T03:26:48.269Z,8.00
2019-02-25T03:29:18.401Z,7.80
2019-02-25T03:31:48.583Z,7.70
2019-02-25T03:34:18.724Z,7.50
2019-02-25T03:36:49.658Z,7.50
2019-02-25T03:39:19.815Z,7.60
2019-02-25T03:41:49.945Z,7.60
2019-02-25T03:44:20.116Z,7.60
2019-02-25T03:46:50.304Z,7.60
2019-02-25T03:49:20.412Z,8.00
2019-02-25T03:51:50.567Z,8.20
2019-02-25T03:54:23.109Z,8.20
2019-02-25T03:56:53.275Z,7.80
2019-02-25T03:59:24.485Z,7.60
2019-02-25T04:01:55.394Z,7.50
2019-02-25T04:04:25.549Z,7.50
2019-02-25T04:06:55.705Z,7.50
2019-02-25T04:09:25.865Z,7.60
2019-02-25T04:11:56.045Z,7.60
2019-02-25T04:14:26.193Z,7.60
2019-02-25T04:16:56.399Z,7.50
2019-02-25T04:19:26.548Z,7.50
2019-02-25T04:21:57.292Z,7.40
2019-02-25T04:24:27.460Z,7.30
2019-02-25T04:26:57.597Z,7.20
2019-02-25T04:29:27.754Z,7.10
2019-02-25T04:31:57.943Z,7.10
2019-02-25T04:34:28.905Z,7.10
2019-02-25T04:36:59.083Z,7.20
2019-02-25T04:39:29.209Z,7.20
2019-02-25T04:42:01.617Z,7.20
2019-02-25T04:44:31.766Z,7.10
2019-02-25T04:47:01.924Z,7.10
2019-02-25T04:49:32.075Z,7.20
2019-02-25T04:52:02.263Z,7.20
2019-02-25T04:54:32.420Z,7.20
2019-02-25T04:57:03.580Z,7.10
2019-02-25T04:59:33.752Z,7.10
2019-02-25T05:02:04.227Z,7.10
2019-02-25T05:04:35.216Z,7.10
2019-02-25T05:07:05.337Z,7.00
2019-02-25T05:09:35.487Z,7.10
2019-02-25T05:12:06.449Z,7.10
2019-02-25T05:14:36.602Z,7.10
2019-02-25T05:17:06.726Z,7.30
2019-02-25T05:19:37.898Z,7.50
2019-02-25T05:22:08.106Z,7.60
2019-02-25T05:24:38.260Z,7.50
2019-02-25T05:27:08.461Z,7.50
2019-02-25T05:29:38.594Z,7.50
2019-02-25T05:32:09.746Z,7.50
2019-02-25T05:34:39.903Z,7.40
2019-02-25T05:37:10.045Z,7.30
2019-02-25T05:39:40.196Z,7.20
2019-02-25T05:42:10.347Z,7.20
2019-02-25T05:44:41.285Z,7.20
2019-02-25T05:47:11.422Z,7.10
2019-02-25T05:49:41.565Z,7.10
2019-02-25T05:52:11.718Z,7.10
2019-02-25T05:54:42.620Z,7.00
2019-02-25T05:57:12.808Z,7.00
2019-02-25T05:59:43.678Z,7.00
2019-02-25T06:02:13.849Z,7.00
2019-02-25T06:04:44.049Z,7.10
2019-02-25T06:07:14.203Z,7.10
2019-02-25T06:09:44.314Z,7.00
2019-02-25T06:12:15.019Z,7.10
2019-02-25T06:14:45.252Z,7.10
2019-02-25T06:17:15.364Z,7.40
2019-02-25T06:19:45.502Z,7.50
2019-02-25T06:22:16.295Z,7.70
2019-02-25T06:24:46.421Z,7.70
2019-02-25T06:27:16.557Z,7.70
2019-02-25T06:29:46.779Z,7.60
2019-02-25T06:32:17.030Z,7.50
2019-02-25T06:34:47.167Z,7.40
2019-02-25T06:37:17.526Z,7.30
2019-02-25T06:39:47.678Z,7.20
2019-02-25T06:42:17.837Z,7.20
2019-02-25T06:44:50.326Z,7.10
2019-02-25T06:47:20.478Z,7.10
2019-02-25T06:49:50.615Z,7.10
2019-02-25T06:52:20.818Z,7.00
2019-02-25T06:54:51.862Z,7.00
2019-02-25T06:57:22.033Z,6.90
2019-02-25T06:59:53.836Z,7.60
2019-02-25T07:02:25.007Z,7.10
2019-02-25T07:04:56.673Z,7.20
2019-02-25T07:07:28.453Z,7.30
2019-02-25T07:10:06.359Z,7.30
2019-02-25T07:12:38.162Z,7.20
2019-02-25T07:15:09.894Z,7.10
2019-02-25T07:17:57.648Z,7.10
2019-02-25T07:20:42.774Z,7.10
2019-02-25T07:23:14.570Z,7.10
2019-02-25T07:25:46.330Z,7.20
2019-02-25T07:28:36.132Z,7.20
2019-02-25T07:31:16.892Z,7.20
2019-02-25T07:33:52.067Z,7.20
2019-02-25T07:36:23.746Z,7.40
2019-02-25T07:39:11.695Z,7.90
2019-02-25T07:41:49.173Z,8.30
2019-02-25T07:44:23.431Z,8.20
2019-02-25T07:46:55.131Z,8.10
2019-02-25T07:49:35.817Z,8.00
2019-02-25T07:52:23.766Z,8.00
2019-02-25T07:54:57.762Z,7.90
2019-02-25T07:57:29.460Z,7.80
2019-02-25T08:00:06.948Z,7.80
2019-02-25T08:02:50.873Z,7.80
2019-02-25T08:05:23.707Z,7.80
2019-02-25T08:07:58.422Z,7.70
2019-02-25T08:10:30.159Z,7.70
2019-02-25T08:13:01.859Z,7.80
2019-02-25T08:15:36.311Z,8.00
2019-02-25T08:18:14.029Z,8.10
2019-02-25T08:21:00.761Z,8.30
2019-02-25T08:23:38.553Z,8.50
2019-02-25T08:26:10.278Z,8.60
2019-02-25T08:28:41.962Z,8.50
2019-02-25T08:31:15.937Z,8.60
2019-02-25T08:33:50.619Z,8.60
2019-02-25T08:36:32.273Z,8.70
2019-02-25T08:39:03.745Z,9.10
2019-02-25T08:41:35.932Z,9.70
2019-02-25T08:44:23.001Z,10.70
2019-02-25T08:46:54.749Z,12.10
2019-02-25T08:49:32.308Z,13.00
2019-02-25T08:52:02.481Z,13.50
2019-02-25T08:54:32.640Z,14.30
2019-02-25T08:57:02.894Z,13.90
2019-02-25T08:59:33.089Z,14.30
2019-02-25T09:02:03.242Z,14.80
2019-02-25T09:04:34.395Z,14.50
2019-02-25T09:07:04.552Z,14.00
2019-02-25T09:09:34.777Z,13.90
2019-02-25T09:12:04.885Z,13.30
2019-02-25T09:14:35.044Z,13.00
2019-02-25T09:17:05.257Z,12.80
2019-02-25T09:19:35.426Z,12.60
2019-02-25T09:22:05.570Z,12.20
2019-02-25T09:24:35.796Z,12.20
2019-02-25T09:27:05.987Z,13.40
2019-02-25T09:29:38.379Z,14.70
2019-02-25T09:32:08.532Z,15.60
2019-02-25T09:34:38.689Z,16.40
2019-02-25T09:37:08.843Z,16.60
2019-02-25T09:39:38.991Z,16.30
2019-02-25T09:42:10.685Z,15.90
2019-02-25T09:44:41.850Z,16.50
2019-02-25T09:47:12.002Z,17.20
2019-02-25T09:49:42.231Z,17.10
2019-02-25T09:52:12.392Z,16.90
2019-02-25T09:54:42.559Z,17.50
2019-02-25T09:57:12.701Z,17.70
2019-02-25T09:59:42.891Z,16.90
2019-02-25T10:02:13.840Z,15.50
2019-02-25T10:04:43.996Z,14.30
2019-02-25T10:07:14.145Z,14.20
2019-02-25T10:09:44.297Z,14.20
2019-02-25T10:12:14.417Z,14.10
2019-02-25T10:14:44.573Z,13.70
2019-02-25T10:17:23.521Z,13.40
2019-02-25T10:19:47.282Z,13.40
2019-02-25T10:22:17.401Z,13.50
2019-02-25T10:24:47.558Z,13.50
2019-02-25T10:27:17.700Z,13.80
2019-02-25T10:29:47.860Z,14.00
2019-02-25T10:32:17.988Z,14.00
2019-02-25T10:34:48.139Z,14.40
2019-02-25T10:37:18.266Z,14.90
2019-02-25T10:39:49.533Z,15.30
2019-02-25T10:42:22.444Z,15.30
2019-02-25T10:44:52.651Z,15.80
2019-02-25T10:47:22.778Z,16.00
2019-02-25T10:49:53.717Z,16.00
2019-02-25T10:52:23.846Z,15.40
2019-02-25T10:54:56.262Z,15.30
2019-02-25T10:57:29.006Z,15.50
2019-02-25T10:59:58.250Z,15.70
2019-02-25T11:02:28.369Z,15.50
2019-02-25T11:04:58.512Z,15.30
2019-02-25T11:07:28.660Z,15.20
2019-02-25T11:10:00.493Z,15.10
2019-02-25T11:12:32.072Z,15.00
2019-02-25T11:15:05.292Z,14.80
2019-02-25T11:17:36.425Z,14.60
2019-02-25T11:20:09.695Z,14.30
2019-02-25T11:22:41.580Z,14.20
2019-02-25T11:25:13.942Z,14.20
2019-02-25T11:27:44.082Z,14.30
2019-02-25T11:30:19.342Z,14.50
2019-02-25T11:32:51.124Z,14.70
2019-02-25T11:35:21.902Z,15.00
2019-02-25T11:37:54.237Z,15.10
2019-02-25T11:40:25.884Z,15.10
2019-02-25T11:42:55.645Z,15.30
2019-02-25T11:45:25.842Z,15.50
2019-02-25T11:47:55.983Z,15.70
2019-02-25T11:50:26.138Z,15.90
2019-02-25T11:52:56.245Z,16.00
2019-02-25T11:55:26.387Z,16.10
2019-02-25T11:57:56.496Z,16.30
2019-02-25T12:00:27.554Z,16.30
2019-02-25T12:02:57.683Z,16.40
2019-02-25T12:05:27.826Z,16.50
2019-02-25T12:07:57.949Z,16.40
2019-02-25T12:10:28.117Z,16.40
2019-02-25T12:12:58.221Z,16.40
2019-02-25T12:15:28.386Z,16.30
2019-02-25T12:17:58.493Z,16.30
2019-02-25T12:20:28.655Z,16.00
2019-02-25T12:22:58.760Z,16.00
2019-02-25T12:25:28.919Z,16.00
2019-02-25T12:27:59.027Z,16.00
2019-02-25T12:30:30.165Z,15.90
2019-02-25T12:33:00.280Z,15.80
2019-02-25T12:35:30.423Z,15.80
2019-02-25T12:38:00.548Z,15.70
2019-02-25T12:40:30.713Z,15.80
2019-02-25T12:43:00.845Z,15.90
2019-02-25T12:45:31.994Z,15.80
2019-02-25T12:48:02.100Z,15.70
2019-02-25T12:50:32.254Z,15.80
2019-02-25T12:53:02.385Z,15.90
2019-02-25T12:55:32.545Z,15.90
2019-02-25T12:58:02.692Z,16.10
2019-02-25T13:00:32.864Z,16.20
2019-02-25T13:03:14.917Z,16.20
2019-02-25T13:05:45.085Z,16.20
2019-02-25T13:08:15.245Z,16.20
2019-02-25T13:10:45.413Z,16.20
2019-02-25T13:13:15.585Z,16.20
2019-02-25T13:15:51.881Z,16.10
2019-02-25T13:18:22.053Z,16.00
2019-02-25T13:20:52.171Z,16.00
2019-02-25T13:23:22.312Z,15.90
2019-02-25T13:25:52.463Z,15.90
2019-02-25T13:28:23.551Z,15.80
2019-02-25T13:30:55.426Z,15.80
2019-02-25T13:33:25.555Z,15.80
2019-02-25T13:35:57.105Z,15.80
2019-02-25T13:38:27.338Z,15.70
2019-02-25T13:40:57.492Z,15.80
2019-02-25T13:43:28.597Z,15.70
2019-02-25T13:45:58.746Z,15.70
2019-02-25T13:48:28.864Z,15.70
2019-02-25T13:50:59.040Z,15.60
2019-02-25T13:53:29.229Z,15.60
2019-02-25T13:56:00.149Z,15.50
2019-02-25T13:58:30.252Z,15.50
2019-02-25T14:01:02.739Z,15.50
2019-02-25T14:03:32.861Z,15.50
2019-02-25T14:06:03.027Z,15.50
2019-02-25T14:08:34.878Z,15.40
2019-02-25T14:11:05.809Z,15.40
2019-02-25T14:13:35.964Z,15.40
2019-02-25T14:16:06.113Z,15.40
2019-02-25T14:18:36.234Z,15.40
2019-02-25T14:21:06.636Z,15.30
2019-02-25T14:23:38.231Z,15.30
2019-02-25T14:26:10.251Z,15.30
2019-02-25T14:28:40.410Z,15.20
2019-02-25T14:31:10.525Z,15.20
2019-02-25T14:33:51.954Z,15.20
2019-02-25T14:36:20.305Z,15.20
2019-02-25T14:38:51.780Z,15.10
2019-02-25T14:41:22.205Z,15.10
2019-02-25T14:43:54.195Z,15.10
2019-02-25T14:46:24.950Z,15.00
2019-02-25T14:48:55.876Z,15.00
2019-02-25T14:51:26.005Z,15.00
2019-02-25T14:53:56.133Z,15.10
2019-02-25T14:56:26.329Z,15.10
2019-02-25T14:58:56.448Z,15.20
2019-02-25T15:01:27.647Z,15.20
2019-02-25T15:04:00.138Z,15.20
2019-02-25T15:06:30.900Z,15.10
2019-02-25T15:09:03.963Z,15.10
2019-02-25T15:11:35.334Z,15.20
2019-02-25T15:14:08.069Z,15.20
2019-02-25T15:16:39.554Z,15.20
2019-02-25T15:19:09.808Z,15.20
2019-02-25T15:21:42.993Z,15.20
2019-02-25T15:24:12.711Z,15.20
2019-02-25T15:26:43.537Z,15.20
2019-02-25T15:29:13.793Z,15.20
2019-02-25T15:31:44.407Z,15.20
2019-02-25T15:34:17.190Z,15.20
2019-02-25T15:36:47.634Z,15.20
2019-02-25T15:39:18.097Z,15.10
2019-02-25T15:41:48.705Z,15.10
2019-02-25T15:44:20.034Z,15.00
2019-02-25T15:46:50.477Z,15.10
2019-02-25T15:49:21.743Z,15.00
2019-02-25T15:51:52.486Z,15.10
2019-02-25T15:54:22.621Z,15.10
2019-02-25T15:56:52.762Z,15.00
2019-02-25T15:59:31.765Z,15.00
2019-02-25T16:01:54.733Z,14.90
2019-02-25T16:04:25.508Z,14.80
2019-02-25T16:06:57.641Z,14.70
2019-02-25T16:09:29.720Z,14.70
2019-02-25T16:12:00.966Z,14.70
2019-02-25T16:14:34.054Z,14.70
2019-02-25T16:17:04.211Z,14.50
2019-02-25T16:19:41.527Z,14.40
2019-02-25T16:22:07.938Z,14.30
2019-02-25T16:24:38.034Z,14.30
2019-02-25T16:27:08.488Z,14.40
2019-02-25T16:29:40.969Z,14.30
2019-02-25T16:32:11.170Z,14.20
2019-02-25T16:34:42.693Z,14.10
2019-02-25T16:37:12.998Z,14.00
2019-02-25T16:39:45.441Z,13.90
2019-02-25T16:42:15.626Z,13.90
2019-02-25T16:44:45.841Z,13.80
2019-02-25T16:47:18.188Z,13.80
2019-02-25T16:49:50.361Z,13.80
2019-02-25T16:52:22.739Z,13.80
2019-02-25T16:54:52.583Z,13.70
2019-02-25T16:57:23.435Z,13.30
2019-02-25T17:00:02.246Z,13.00
2019-02-25T17:02:34.456Z,12.80
2019-02-25T17:05:06.084Z,12.60
2019-02-25T17:07:37.914Z,12.50
2019-02-25T17:10:10.822Z,12.30
2019-02-25T17:12:41.008Z,12.20
2019-02-25T17:15:13.285Z,12.20
2019-02-25T17:17:43.619Z,12.10
2019-02-25T17:20:21.384Z,12.00
2019-02-25T17:22:51.640Z,11.90
2019-02-25T17:25:21.764Z,11.80
2019-02-25T17:27:51.938Z,11.90
2019-02-25T17:30:26.541Z,11.80
2019-02-25T17:32:57.668Z,11.60
2019-02-25T17:35:28.867Z,11.80
2019-02-25T17:38:00.855Z,11.80
2019-02-25T17:40:31.564Z,11.90
2019-02-25T17:43:01.919Z,12.00
2019-02-25T17:45:34.374Z,11.90
2019-02-25T17:48:08.137Z,11.80
2019-02-25T17:50:37.142Z,11.90
2019-02-25T17:53:09.428Z,11.90
2019-02-25T17:55:39.728Z,11.90
2019-02-25T17:58:09.892Z,11.80
2019-02-25T18:00:46.616Z,11.60
2019-02-25T18:03:17.421Z,11.50
2019-02-25T18:05:48.287Z,11.40
2019-02-25T18:08:18.689Z,11.30
2019-02-25T18:10:50.058Z,11.20
2019-02-25T18:13:21.926Z,11.10
2019-02-25T18:15:53.673Z,11.00
2019-02-25T18:18:24.535Z,10.80
2019-02-25T18:20:54.888Z,10.80
2019-02-25T18:23:25.870Z,10.70
2019-02-25T18:25:58.669Z,10.60
2019-02-25T18:28:27.983Z,10.60
2019-02-25T18:31:01.766Z,10.60
2019-02-25T18:33:32.430Z,10.60
2019-02-25T18:36:04.131Z,10.50
2019-02-25T18:38:34.640Z,10.50
2019-02-25T18:41:06.380Z,10.60
2019-02-25T18:43:36.662Z,10.70
2019-02-25T18:46:07.264Z,10.70
2019-02-25T18:48:37.722Z,10.70
2019-02-25T18:51:07.855Z,10.70
2019-02-25T18:53:38.022Z,10.70
2019-02-25T18:56:11.604Z,10.80
2019-02-25T18:58:41.630Z,10.80
2019-02-25T19:01:13.397Z,10.80
2019-02-25T19:03:44.438Z,11.00
2019-02-25T19:06:15.518Z,11.00
2019-02-25T19:08:47.328Z,11.00
2019-02-25T19:11:19.053Z,11.00
2019-02-25T19:13:52.038Z,11.00
2019-02-25T19:16:24.029Z,11.00
2019-02-25T19:18:55.149Z,11.00
2019-02-25T19:21:26.025Z,11.00
2019-02-25T19:23:57.073Z,11.00
2019-02-25T19:26:27.208Z,11.00
2019-02-25T19:28:58.941Z,11.00
2019-02-25T19:31:29.396Z,11.00
2019-02-25T19:34:00.496Z,10.90
2019-02-25T19:36:34.401Z,10.90
2019-02-25T19:39:09.342Z,10.80
2019-02-25T19:41:37.213Z,10.60
2019-02-25T19:44:08.033Z,10.50
2019-02-25T19:46:39.062Z,10.50
2019-02-25T19:49:11.027Z,10.50
2019-02-25T19:51:43.381Z,10.50
2019-02-25T19:54:14.018Z,10.50
2019-02-25T19:56:46.059Z,10.60
2019-02-25T19:59:18.878Z,10.70
2019-02-25T20:01:48.747Z,10.70
2019-02-25T20:04:18.938Z,10.80
2019-02-25T20:06:51.304Z,10.90
2019-02-25T20:09:22.538Z,11.10
2019-02-25T20:12:01.315Z,11.10
2019-02-25T20:14:31.426Z,11.10
2019-02-25T20:17:02.678Z,11.00
2019-02-25T20:19:32.970Z,10.90
2019-02-25T20:22:04.097Z,10.90
2019-02-25T20:24:34.275Z,10.90
2019-02-25T20:27:05.251Z,10.80
2019-02-25T20:29:37.825Z,10.70
2019-02-25T20:32:10.181Z,10.60
2019-02-25T20:34:40.674Z,10.70
2019-02-25T20:37:10.789Z,10.80
2019-02-25T20:39:42.843Z,10.80
2019-02-25T20:42:17.322Z,10.90
2019-02-25T20:44:49.250Z,10.90
2019-02-25T20:47:19.695Z,10.80
2019-02-25T20:49:53.682Z,10.90
2019-02-25T20:52:22.217Z,10.90
2019-02-25T20:54:52.495Z,10.80
2019-02-25T20:57:22.626Z,10.80
2019-02-25T20:59:53.315Z,10.80
2019-02-25T21:02:25.649Z,10.80
2019-02-25T21:04:58.081Z,10.70
2019-02-25T21:07:29.784Z,10.60
2019-02-25T21:10:01.419Z,10.40
2019-02-25T21:12:32.714Z,10.40
2019-02-25T21:15:02.866Z,10.40
2019-02-25T21:17:35.536Z,10.20
2019-02-25T21:20:10.164Z,10.00
2019-02-25T21:22:40.273Z,9.70
2019-02-25T21:25:13.963Z,9.50
2019-02-25T21:27:44.123Z,9.30
2019-02-25T21:30:22.094Z,9.20
2019-02-25T21:32:54.134Z,9.00
2019-02-25T21:35:27.536Z,8.80
2019-02-25T21:37:55.747Z,8.80
2019-02-25T21:40:29.381Z,8.80
2019-02-25T21:42:57.825Z,8.80
2019-02-25T21:45:30.203Z,8.70
2019-02-25T21:48:02.066Z,8.70
2019-02-25T21:50:34.067Z,8.80
2019-02-25T21:53:04.884Z,8.60
2019-02-25T21:55:36.044Z,8.60
2019-02-25T21:58:06.189Z,8.60
2019-02-25T22:00:38.600Z,8.60
2019-02-25T22:03:10.337Z,8.60
2019-02-25T22:05:40.130Z,8.70
2019-02-25T22:08:10.325Z,8.50
2019-02-25T22:10:42.040Z,8.50
2019-02-25T22:13:14.139Z,8.50
2019-02-25T22:15:45.264Z,8.30
2019-02-25T22:18:15.593Z,8.30
2019-02-25T22:20:47.650Z,8.20
2019-02-25T22:23:17.482Z,8.10
2019-02-25T22:25:47.603Z,7.90
2019-02-25T22:28:17.737Z,8.00
2019-02-25T22:30:49.623Z,7.90
2019-02-25T22:33:27.534Z,7.90
2019-02-25T22:35:51.902Z,7.80
2019-02-25T22:38:22.090Z,7.70
2019-02-25T22:40:53.623Z,7.70
2019-02-25T22:43:25.264Z,7.50
2019-02-25T22:45:58.104Z,7.40
2019-02-25T22:48:27.181Z,7.40
2019-02-25T22:50:57.773Z,7.50
2019-02-25T22:53:29.106Z,7.70
2019-02-25T22:55:59.316Z,7.80
2019-02-25T22:58:31.586Z,7.80
2019-02-25T23:01:04.821Z,7.80
2019-02-25T23:03:36.476Z,7.80
2019-02-25T23:06:09.233Z,8.00
2019-02-25T23:08:42.095Z,8.00
2019-02-25T23:11:12.540Z,7.90
2019-02-25T23:13:43.215Z,7.90
2019-02-25T23:16:15.713Z,7.70
2019-02-25T23:18:47.796Z,7.90
2019-02-25T23:21:23.789Z,7.90
2019-02-25T23:23:53.448Z,7.90
2019-02-25T23:26:22.649Z,7.70
2019-02-25T23:28:53.760Z,7.50
2019-02-25T23:31:24.659Z,7.40
2019-02-25T23:33:56.307Z,7.20
2019-02-25T23:36:26.637Z,7.20
2019-02-25T23:38:57.146Z,7.10
2019-02-25T23:41:32.028Z,7.00
2019-02-25T23:44:01.096Z,7.00
2019-02-25T23:46:32.167Z,7.00
2019-02-25T23:49:03.113Z,7.00
2019-02-25T23:51:33.261Z,7.00
2019-02-25T23:54:03.458Z,7.00
2019-02-25T23:56:33.606Z,7.10
2019-02-25T23:59:03.736Z,7.10
